createdAt,value
2018-02-11T00:00:22.365Z,1004.10
2018-02-11T00:01:22.361Z,1004.05
2018-02-11T00:02:22.334Z,1003.99
2018-02-11T00:03:22.318Z,1003.97
2018-02-11T00:04:22.308Z,1003.93
2018-02-11T00:05:22.325Z,1003.88
2018-02-11T00:06:22.305Z,1003.83
2018-02-11T00:07:22.273Z,1003.79
2018-02-11T00:08:22.273Z,1003.76
2018-02-11T00:09:22.254Z,1003.76
2018-02-11T00:10:22.271Z,1003.73
2018-02-11T00:11:22.243Z,1003.72
2018-02-11T00:12:22.209Z,1003.72
2018-02-11T00:13:22.209Z,1003.65
2018-02-11T00:14:22.193Z,1003.65
2018-02-11T00:15:22.200Z,1003.64
2018-02-11T00:16:22.204Z,1003.61
2018-02-11T00:17:22.179Z,1003.59
2018-02-11T00:18:22.154Z,1003.59
2018-02-11T00:19:22.149Z,1003.58
2018-02-11T00:20:22.167Z,1003.56
2018-02-11T00:21:22.146Z,1003.52
2018-02-11T00:22:22.131Z,1003.53
2018-02-11T00:23:22.102Z,1003.51
2018-02-11T00:24:22.086Z,1003.47
2018-02-11T00:25:22.069Z,1003.48
2018-02-11T00:26:22.056Z,1003.43
2018-02-11T00:27:22.074Z,1003.39
2018-02-11T00:28:22.032Z,1003.39
2018-02-11T00:29:22.031Z,1003.31
2018-02-11T00:30:22.015Z,1003.32
2018-02-11T00:31:22.038Z,1003.32
2018-02-11T00:32:21.990Z,1003.25
2018-02-11T00:33:22.002Z,1003.20
2018-02-11T00:34:21.964Z,1003.18
2018-02-11T00:35:21.954Z,1003.16
2018-02-11T00:36:21.994Z,1003.09
2018-02-11T00:37:21.932Z,1003.10
2018-02-11T00:38:21.946Z,1003.06
2018-02-11T00:39:21.907Z,1003.08
2018-02-11T00:40:21.901Z,1003.05
2018-02-11T00:41:21.885Z,1003.00
2018-02-11T00:42:21.889Z,1003.00
2018-02-11T00:43:21.889Z,1002.97
2018-02-11T00:44:21.857Z,1002.96
2018-02-11T00:45:21.842Z,1002.88
2018-02-11T00:46:21.834Z,1002.92
2018-02-11T00:47:21.835Z,1002.88
2018-02-11T00:48:21.831Z,1002.85
2018-02-11T00:49:21.821Z,1002.83
2018-02-11T00:50:21.802Z,1002.80
2018-02-11T00:51:21.807Z,1002.75
2018-02-11T00:52:21.760Z,1002.75
2018-02-11T00:53:21.751Z,1002.75
2018-02-11T00:54:21.754Z,1002.76
2018-02-11T00:55:21.741Z,1002.73
2018-02-11T00:56:21.758Z,1002.74
2018-02-11T00:57:21.735Z,1002.73
2018-02-11T00:58:21.693Z,1002.72
2018-02-11T00:59:21.687Z,1002.65
2018-02-11T01:00:21.732Z,1002.66
2018-02-11T01:01:21.656Z,1002.65
2018-02-11T01:02:21.650Z,1002.62
2018-02-11T01:03:21.634Z,1002.60
2018-02-11T01:04:21.643Z,1002.59
2018-02-11T01:05:21.631Z,1002.57
2018-02-11T01:06:21.670Z,1002.54
2018-02-11T01:07:21.593Z,1002.53
2018-02-11T01:08:21.577Z,1002.55
2018-02-11T01:09:21.568Z,1002.54
2018-02-11T01:10:21.563Z,1002.56
2018-02-11T01:11:21.566Z,1002.54
2018-02-11T01:12:21.546Z,1002.51
2018-02-11T01:13:21.525Z,1002.51
2018-02-11T01:14:21.517Z,1002.56
2018-02-11T01:15:21.498Z,1002.49
2018-02-11T01:16:21.490Z,1002.49
2018-02-11T01:17:21.497Z,1002.49
2018-02-11T01:18:21.477Z,1002.48
2018-02-11T01:19:21.452Z,1002.51
2018-02-11T01:20:21.442Z,1002.44
2018-02-11T01:21:21.457Z,1002.44
2018-02-11T01:22:21.449Z,1002.43
2018-02-11T01:23:21.427Z,1002.39
2018-02-11T01:24:21.396Z,1002.40
2018-02-11T01:25:22.474Z,1002.33
2018-02-11T01:26:21.361Z,1002.30
2018-02-11T01:27:21.358Z,1002.31
2018-02-11T01:28:21.367Z,1002.30
2018-02-11T01:29:21.367Z,1002.25
2018-02-11T01:30:21.324Z,1002.26
2018-02-11T01:31:21.308Z,1002.25
2018-02-11T01:32:21.295Z,1002.21
2018-02-11T01:33:21.301Z,1002.19
2018-02-11T01:34:21.297Z,1002.18
2018-02-11T01:35:21.267Z,1002.16
2018-02-11T01:36:21.275Z,1002.14
2018-02-11T01:37:21.267Z,1002.09
2018-02-11T01:38:21.227Z,1002.07
2018-02-11T01:39:21.242Z,1002.12
2018-02-11T01:40:21.208Z,1002.11
2018-02-11T01:41:21.196Z,1002.09
2018-02-11T01:42:21.187Z,1002.05
2018-02-11T01:43:21.171Z,1002.08
2018-02-11T01:44:21.177Z,1002.03
2018-02-11T01:45:21.151Z,1002.01
2018-02-11T01:46:21.137Z,1002.02
2018-02-11T01:47:21.126Z,1002.00
2018-02-11T01:48:21.108Z,1001.98
2018-02-11T01:49:21.134Z,1001.98
2018-02-11T01:50:21.095Z,1001.93
2018-02-11T01:51:21.090Z,1001.90
2018-02-11T01:52:21.083Z,1001.82
2018-02-11T01:53:21.053Z,1001.82
2018-02-11T01:54:21.037Z,1001.85
2018-02-11T01:55:21.071Z,1001.81
2018-02-11T01:56:21.014Z,1001.77
2018-02-11T01:57:21.003Z,1001.73
2018-02-11T01:58:21.000Z,1001.71
2018-02-11T01:59:20.980Z,1001.72
2018-02-11T02:00:20.976Z,1001.69
2018-02-11T02:01:20.971Z,1001.64
2018-02-11T02:02:20.950Z,1001.63
2018-02-11T02:03:20.938Z,1001.60
2018-02-11T02:04:20.924Z,1001.54
2018-02-11T02:05:20.908Z,1001.48
2018-02-11T02:06:20.917Z,1001.52
2018-02-11T02:07:20.903Z,1001.49
2018-02-11T02:08:20.903Z,1001.51
2018-02-11T02:09:20.863Z,1001.48
2018-02-11T02:10:20.849Z,1001.51
2018-02-11T02:11:20.861Z,1001.53
2018-02-11T02:12:20.828Z,1001.55
2018-02-11T02:13:20.816Z,1001.56
2018-02-11T02:14:20.808Z,1001.52
2018-02-11T02:15:20.846Z,1001.45
2018-02-11T02:16:20.812Z,1001.45
2018-02-11T02:17:20.769Z,1001.39
2018-02-11T02:18:20.756Z,1001.36
2018-02-11T02:19:20.748Z,1001.35
2018-02-11T02:20:20.755Z,1001.35
2018-02-11T02:21:20.745Z,1001.35
2018-02-11T02:22:20.767Z,1001.32
2018-02-11T02:23:20.713Z,1001.31
2018-02-11T02:24:20.712Z,1001.34
2018-02-11T02:25:20.673Z,1001.28
2018-02-11T02:26:20.659Z,1001.29
2018-02-11T02:27:20.667Z,1001.29
2018-02-11T02:28:20.642Z,1001.28
2018-02-11T02:29:20.627Z,1001.27
2018-02-11T02:30:20.639Z,1001.19
2018-02-11T02:31:20.615Z,1001.18
2018-02-11T02:32:20.615Z,1001.12
2018-02-11T02:33:20.583Z,1001.07
2018-02-11T02:34:20.574Z,1001.12
2018-02-11T02:35:20.558Z,1001.06
2018-02-11T02:36:20.556Z,1000.98
2018-02-11T02:37:20.551Z,1000.98
2018-02-11T02:38:20.558Z,1000.95
2018-02-11T02:39:20.555Z,1000.91
2018-02-11T02:40:20.495Z,1000.91
2018-02-11T02:41:20.488Z,1000.88
2018-02-11T02:42:20.476Z,1000.87
2018-02-11T02:43:20.490Z,1000.85
2018-02-11T02:44:20.483Z,1000.82
2018-02-11T02:45:20.448Z,1000.83
2018-02-11T02:46:20.463Z,1000.81
2018-02-11T02:47:20.412Z,1000.80
2018-02-11T02:48:20.442Z,1000.69
2018-02-11T02:49:20.396Z,1000.74
2018-02-11T02:50:20.404Z,1000.71
2018-02-11T02:51:20.374Z,1000.65
2018-02-11T02:52:20.390Z,1000.64
2018-02-11T02:53:20.369Z,1000.59
2018-02-11T02:54:20.491Z,1000.59
2018-02-11T02:55:20.324Z,1000.62
2018-02-11T02:56:20.315Z,1000.59
2018-02-11T02:57:20.322Z,1000.55
2018-02-11T02:58:20.292Z,1000.52
2018-02-11T02:59:20.292Z,1000.52
2018-02-11T03:00:20.280Z,1000.45
2018-02-11T03:01:20.267Z,1000.44
2018-02-11T03:02:20.263Z,1000.41
2018-02-11T03:03:20.235Z,1000.36
2018-02-11T03:04:20.237Z,1000.41
2018-02-11T03:05:20.239Z,1000.40
2018-02-11T03:06:20.214Z,1000.37
2018-02-11T03:07:20.199Z,1000.35
2018-02-11T03:08:20.182Z,1000.34
2018-02-11T03:09:20.212Z,1000.32
2018-02-11T03:10:20.203Z,1000.33
2018-02-11T03:11:20.179Z,1000.30
2018-02-11T03:12:20.173Z,1000.26
2018-02-11T03:13:20.141Z,1000.28
2018-02-11T03:14:20.164Z,1000.22
2018-02-11T03:15:20.180Z,1000.23
2018-02-11T03:16:20.112Z,1000.19
2018-02-11T03:17:20.098Z,1000.13
2018-02-11T03:18:20.102Z,1000.13
2018-02-11T03:19:20.070Z,1000.02
2018-02-11T03:20:20.084Z,1000.06
2018-02-11T03:21:20.045Z,1000.09
2018-02-11T03:22:20.031Z,1000.07
2018-02-11T03:23:20.055Z,1000.04
2018-02-11T03:24:20.012Z,1000.00
2018-02-11T03:25:20.030Z,1000.06
2018-02-11T03:26:20.008Z,999.97
2018-02-11T03:27:19.984Z,1000.01
2018-02-11T03:28:19.985Z,1000.03
2018-02-11T03:29:19.952Z,999.96
2018-02-11T03:30:19.944Z,999.91
2018-02-11T03:31:19.931Z,999.88
2018-02-11T03:32:19.916Z,999.83
2018-02-11T03:33:19.923Z,999.82
2018-02-11T03:34:19.895Z,999.80
2018-02-11T03:35:19.884Z,999.76
2018-02-11T03:36:19.900Z,999.74
2018-02-11T03:37:19.864Z,999.73
2018-02-11T03:38:19.865Z,999.72
2018-02-11T03:39:19.842Z,999.69
2018-02-11T03:40:19.853Z,999.61
2018-02-11T03:41:19.962Z,999.59
2018-02-11T03:42:19.805Z,999.53
2018-02-11T03:43:19.812Z,999.53
2018-02-11T03:44:19.781Z,999.45
2018-02-11T03:45:19.770Z,999.42
2018-02-11T03:46:19.785Z,999.38
2018-02-11T03:47:19.771Z,999.41
2018-02-11T03:48:19.719Z,999.41
2018-02-11T03:49:19.719Z,999.34
2018-02-11T03:50:19.712Z,999.35
2018-02-11T03:51:19.704Z,999.34
2018-02-11T03:52:19.713Z,999.27
2018-02-11T03:53:19.680Z,999.24
2018-02-11T03:54:19.663Z,999.25
2018-02-11T03:55:19.662Z,999.22
2018-02-11T03:56:19.674Z,999.25
2018-02-11T03:57:19.654Z,999.22
2018-02-11T03:58:19.623Z,999.20
2018-02-11T03:59:19.609Z,999.21
2018-02-11T04:00:19.603Z,999.24
2018-02-11T04:01:19.589Z,999.18
2018-02-11T04:02:19.602Z,999.16
2018-02-11T04:03:19.561Z,999.12
2018-02-11T04:04:19.568Z,999.12
2018-02-11T04:05:19.546Z,999.06
2018-02-11T04:06:19.522Z,999.05
2018-02-11T04:07:19.531Z,999.02
2018-02-11T04:08:19.537Z,999.00
2018-02-11T04:09:19.491Z,998.93
2018-02-11T04:10:19.482Z,998.93
2018-02-11T04:11:19.494Z,998.88
2018-02-11T04:12:19.466Z,998.85
2018-02-11T04:13:19.476Z,998.78
2018-02-11T04:14:19.440Z,998.76
2018-02-11T04:15:19.443Z,998.73
2018-02-11T04:16:19.417Z,998.79
2018-02-11T04:17:19.395Z,998.70
2018-02-11T04:18:19.419Z,998.64
2018-02-11T04:19:19.372Z,998.68
2018-02-11T04:20:19.379Z,998.63
2018-02-11T04:21:19.351Z,998.64
2018-02-11T04:22:19.346Z,998.67
2018-02-11T04:23:19.352Z,998.68
2018-02-11T04:24:19.326Z,998.63
2018-02-11T04:25:19.324Z,998.60
2018-02-11T04:26:19.299Z,998.61
2018-02-11T04:27:19.263Z,998.55
2018-02-11T04:28:19.297Z,998.51
2018-02-11T04:29:19.278Z,998.45
2018-02-11T04:30:19.251Z,998.46
2018-02-11T04:31:19.238Z,998.44
2018-02-11T04:32:19.231Z,998.44
2018-02-11T04:33:19.210Z,998.39
2018-02-11T04:34:19.235Z,998.31
2018-02-11T04:35:19.191Z,998.26
2018-02-11T04:36:19.182Z,998.23
2018-02-11T04:37:19.165Z,998.18
2018-02-11T04:38:19.162Z,998.09
2018-02-11T04:39:19.162Z,998.04
2018-02-11T04:40:19.176Z,998.06
2018-02-11T04:41:19.143Z,998.01
2018-02-11T04:42:19.151Z,998.00
2018-02-11T04:43:19.094Z,997.99
2018-02-11T04:44:19.066Z,997.97
2018-02-11T04:45:19.093Z,997.89
2018-02-11T04:46:19.078Z,997.94
2018-02-11T04:47:19.062Z,997.96
2018-02-11T04:48:19.048Z,997.96
2018-02-11T04:49:19.027Z,997.97
2018-02-11T04:50:19.033Z,997.93
2018-02-11T04:51:19.007Z,997.89
2018-02-11T04:52:19.028Z,997.93
2018-02-11T04:53:18.986Z,997.83
2018-02-11T04:54:18.973Z,997.89
2018-02-11T04:55:18.964Z,997.84
2018-02-11T04:56:18.947Z,997.81
2018-02-11T04:57:18.958Z,997.80
2018-02-11T04:58:18.956Z,997.82
2018-02-11T04:59:18.910Z,997.75
2018-02-11T05:00:18.906Z,997.70
2018-02-11T05:01:18.891Z,997.60
2018-02-11T05:02:18.910Z,997.63
2018-02-11T05:03:18.866Z,997.64
2018-02-11T05:04:18.849Z,997.53
2018-02-11T05:05:18.839Z,997.54
2018-02-11T05:06:18.830Z,997.47
2018-02-11T05:07:18.847Z,997.37
2018-02-11T05:08:18.840Z,997.33
2018-02-11T05:09:18.791Z,997.29
2018-02-11T05:10:18.782Z,997.31
2018-02-11T05:11:18.772Z,997.25
2018-02-11T05:12:18.766Z,997.25
2018-02-11T05:13:18.785Z,997.22
2018-02-11T05:14:18.778Z,997.23
2018-02-11T05:15:18.708Z,997.23
2018-02-11T05:16:18.728Z,997.20
2018-02-11T05:17:18.704Z,997.19
2018-02-11T05:18:18.704Z,997.14
2018-02-11T05:19:18.747Z,997.12
2018-02-11T05:20:18.688Z,997.08
2018-02-11T05:21:18.656Z,997.05
2018-02-11T05:22:18.657Z,997.02
2018-02-11T05:23:18.630Z,997.02
2018-02-11T05:24:18.650Z,997.00
2018-02-11T05:25:18.616Z,996.93
2018-02-11T05:26:18.608Z,996.94
2018-02-11T05:27:18.593Z,996.88
2018-02-11T05:28:18.582Z,996.85
2018-02-11T05:29:18.606Z,996.81
2018-02-11T05:30:18.562Z,996.82
2018-02-11T05:31:18.549Z,996.76
2018-02-11T05:32:18.538Z,996.71
2018-02-11T05:33:18.535Z,996.64
2018-02-11T05:34:18.577Z,996.64
2018-02-11T05:35:18.505Z,996.62
2018-02-11T05:36:18.488Z,996.64
2018-02-11T05:37:18.480Z,996.60
2018-02-11T05:38:18.476Z,996.48
2018-02-11T05:39:18.500Z,996.51
2018-02-11T05:40:18.465Z,996.44
2018-02-11T05:41:18.437Z,996.49
2018-02-11T05:42:18.421Z,996.47
2018-02-11T05:43:18.415Z,996.49
2018-02-11T05:44:18.423Z,996.48
2018-02-11T05:45:18.397Z,996.44
2018-02-11T05:46:18.372Z,996.42
2018-02-11T05:47:18.373Z,996.35
2018-02-11T05:48:18.359Z,996.28
2018-02-11T05:49:18.411Z,996.29
2018-02-11T05:50:18.320Z,996.31
2018-02-11T05:51:18.319Z,996.30
2018-02-11T05:52:18.307Z,996.17
2018-02-11T05:53:18.343Z,996.16
2018-02-11T05:54:18.308Z,996.18
2018-02-11T05:55:18.292Z,996.17
2018-02-11T05:56:18.264Z,996.16
2018-02-11T05:57:18.255Z,996.12
2018-02-11T05:58:18.242Z,996.10
2018-02-11T05:59:18.252Z,996.16
2018-02-11T06:00:18.265Z,996.14
2018-02-11T06:01:18.214Z,996.09
2018-02-11T06:02:18.210Z,996.12
2018-02-11T06:03:18.184Z,996.09
2018-02-11T06:04:18.195Z,996.08
2018-02-11T06:05:18.207Z,996.05
2018-02-11T06:06:18.168Z,996.04
2018-02-11T06:07:18.148Z,995.99
2018-02-11T06:08:18.133Z,995.98
2018-02-11T06:09:18.125Z,995.95
2018-02-11T06:10:18.128Z,995.95
2018-02-11T06:11:18.091Z,995.91
2018-02-11T06:12:18.087Z,995.94
2018-02-11T06:13:18.083Z,995.86
2018-02-11T06:14:18.071Z,995.85
2018-02-11T06:15:18.049Z,995.90
2018-02-11T06:16:18.072Z,995.84
2018-02-11T06:17:18.028Z,995.85
2018-02-11T06:18:18.024Z,995.73
2018-02-11T06:19:18.005Z,995.70
2018-02-11T06:20:17.990Z,995.71
2018-02-11T06:21:18.022Z,995.63
2018-02-11T06:22:17.977Z,995.56
2018-02-11T06:23:17.963Z,995.51
2018-02-11T06:24:17.956Z,995.48
2018-02-11T06:25:17.945Z,995.49
2018-02-11T06:26:17.958Z,995.41
2018-02-11T06:27:17.953Z,995.37
2018-02-11T06:28:17.901Z,995.29
2018-02-11T06:29:17.891Z,995.29
2018-02-11T06:30:17.885Z,995.33
2018-02-11T06:31:17.843Z,995.28
2018-02-11T06:32:17.877Z,995.27
2018-02-11T06:33:17.864Z,995.30
2018-02-11T06:34:17.867Z,995.28
2018-02-11T06:35:17.826Z,995.26
2018-02-11T06:36:17.847Z,995.26
2018-02-11T06:37:17.793Z,995.20
2018-02-11T06:38:17.787Z,995.20
2018-02-11T06:39:17.795Z,995.17
2018-02-11T06:40:17.752Z,995.14
2018-02-11T06:41:17.755Z,995.13
2018-02-11T06:42:17.743Z,995.13
2018-02-11T06:43:17.727Z,995.10
2018-02-11T06:44:17.752Z,995.03
2018-02-11T06:45:17.782Z,995.07
2018-02-11T06:46:17.700Z,995.09
2018-02-11T06:47:17.670Z,995.05
2018-02-11T06:48:17.658Z,995.09
2018-02-11T06:49:17.667Z,995.03
2018-02-11T06:50:17.697Z,995.07
2018-02-11T06:51:17.659Z,995.03
2018-02-11T06:52:17.650Z,995.04
2018-02-11T06:53:17.615Z,994.99
2018-02-11T06:54:17.600Z,994.96
2018-02-11T06:55:17.614Z,994.96
2018-02-11T06:56:17.589Z,994.94
2018-02-11T06:57:17.627Z,994.89
2018-02-11T06:58:17.584Z,994.90
2018-02-11T06:59:17.545Z,994.91
2018-02-11T07:00:17.575Z,994.79
2018-02-11T07:01:17.521Z,994.83
2018-02-11T07:02:17.570Z,994.75
2018-02-11T07:03:17.569Z,994.77
2018-02-11T07:04:17.491Z,994.78
2018-02-11T07:05:17.496Z,994.78
2018-02-11T07:06:17.490Z,994.79
2018-02-11T07:07:17.494Z,994.74
2018-02-11T07:08:17.437Z,994.74
2018-02-11T07:09:17.424Z,994.73
2018-02-11T07:10:17.418Z,994.73
2018-02-11T07:11:17.411Z,994.62
2018-02-11T07:12:17.423Z,994.71
2018-02-11T07:13:17.395Z,994.71
2018-02-11T07:14:17.370Z,994.62
2018-02-11T07:15:17.365Z,994.60
2018-02-11T07:16:17.350Z,994.58
2018-02-11T07:17:17.361Z,994.61
2018-02-11T07:18:17.345Z,994.58
2018-02-11T07:19:17.311Z,994.59
2018-02-11T07:20:17.310Z,994.63
2018-02-11T07:21:17.293Z,994.63
2018-02-11T07:22:17.350Z,994.61
2018-02-11T07:23:17.288Z,994.62
2018-02-11T07:24:17.261Z,994.59
2018-02-11T07:25:17.258Z,994.60
2018-02-11T07:26:17.235Z,994.60
2018-02-11T07:27:17.250Z,994.53
2018-02-11T07:28:22.207Z,994.55
2018-02-11T07:29:17.199Z,994.46
2018-02-11T07:30:17.191Z,994.54
2018-02-11T07:31:17.178Z,994.45
2018-02-11T07:32:17.165Z,994.31
2018-02-11T07:33:17.152Z,994.39
2018-02-11T07:34:17.147Z,994.33
2018-02-11T07:35:17.154Z,994.33
2018-02-11T07:36:17.136Z,994.27
2018-02-11T07:37:17.203Z,994.27
2018-02-11T07:38:17.141Z,994.30
2018-02-11T07:39:17.193Z,994.26
2018-02-11T07:40:17.072Z,994.22
2018-02-11T07:41:17.061Z,994.15
2018-02-11T07:42:17.071Z,994.17
2018-02-11T07:43:17.061Z,994.11
2018-02-11T07:44:17.043Z,994.10
2018-02-11T07:45:17.026Z,994.12
2018-02-11T07:46:17.016Z,994.03
2018-02-11T07:47:17.011Z,994.01
2018-02-11T07:48:17.011Z,993.99
2018-02-11T07:49:17.005Z,993.97
2018-02-11T07:50:16.973Z,993.97
2018-02-11T07:51:16.957Z,993.94
2018-02-11T07:52:17.817Z,993.93
2018-02-11T07:53:16.943Z,993.91
2018-02-11T07:54:16.921Z,993.90
2018-02-11T07:55:16.961Z,993.92
2018-02-11T07:56:16.904Z,993.87
2018-02-11T07:57:17.912Z,993.89
2018-02-11T07:58:16.872Z,993.79
2018-02-11T07:59:16.881Z,993.83
2018-02-11T08:00:16.899Z,993.79
2018-02-11T08:01:16.841Z,993.82
2018-02-11T08:02:16.830Z,993.74
2018-02-11T08:03:16.842Z,993.78
2018-02-11T08:04:16.820Z,993.75
2018-02-11T08:05:16.819Z,993.76
2018-02-11T08:06:16.785Z,993.74
2018-02-11T08:07:16.773Z,993.72
2018-02-11T08:08:16.761Z,993.74
2018-02-11T08:09:16.727Z,993.66
2018-02-11T08:10:16.793Z,993.75
2018-02-11T08:11:16.723Z,993.74
2018-02-11T08:12:16.729Z,993.74
2018-02-11T08:13:16.705Z,993.67
2018-02-11T08:14:16.701Z,993.71
2018-02-11T08:15:16.751Z,993.67
2018-02-11T08:16:16.651Z,993.61
2018-02-11T08:17:16.662Z,993.68
2018-02-11T08:18:16.639Z,993.65
2018-02-11T08:19:16.635Z,993.61
2018-02-11T08:20:16.650Z,993.61
2018-02-11T08:21:16.635Z,993.69
2018-02-11T08:22:16.605Z,993.66
2018-02-11T08:23:16.599Z,993.71
2018-02-11T08:24:16.563Z,993.70
2018-02-11T08:25:16.589Z,993.59
2018-02-11T08:26:16.579Z,993.67
2018-02-11T08:27:16.548Z,993.65
2018-02-11T08:28:16.530Z,993.63
2018-02-11T08:29:16.528Z,993.57
2018-02-11T08:30:16.554Z,993.57
2018-02-11T08:31:16.487Z,993.48
2018-02-11T08:32:16.499Z,993.53
2018-02-11T08:33:21.471Z,993.57
2018-02-11T08:34:16.502Z,993.49
2018-02-11T08:35:16.495Z,993.39
2018-02-11T08:36:16.452Z,993.50
2018-02-11T08:37:16.431Z,993.50
2018-02-11T08:38:16.460Z,993.48
2018-02-11T08:39:16.409Z,993.50
2018-02-11T08:40:16.434Z,993.43
2018-02-11T08:41:16.402Z,993.47
2018-02-11T08:42:16.402Z,993.39
2018-02-11T08:43:16.364Z,993.41
2018-02-11T08:44:16.387Z,993.30
2018-02-11T08:45:16.391Z,993.46
2018-02-11T08:46:16.338Z,993.44
2018-02-11T08:47:16.326Z,993.45
2018-02-11T08:48:16.306Z,993.41
2018-02-11T08:49:16.323Z,993.37
2018-02-11T08:50:16.282Z,993.35
2018-02-11T08:51:16.296Z,993.31
2018-02-11T08:52:16.264Z,993.31
2018-02-11T08:53:16.267Z,993.33
2018-02-11T08:54:16.239Z,993.28
2018-02-11T08:55:16.236Z,993.31
2018-02-11T08:56:16.241Z,993.34
2018-02-11T08:57:16.231Z,993.36
2018-02-11T08:58:16.194Z,993.33
2018-02-11T08:59:16.181Z,993.24
2018-02-11T09:00:16.170Z,993.26
2018-02-11T09:01:16.169Z,993.26
2018-02-11T09:02:16.176Z,993.24
2018-02-11T09:03:16.148Z,993.16
2018-02-11T09:04:16.163Z,993.23
2018-02-11T09:05:16.122Z,993.28
2018-02-11T09:06:16.102Z,993.28
2018-02-11T09:07:16.111Z,993.21
2018-02-11T09:08:16.106Z,993.27
2018-02-11T09:09:16.062Z,993.25
2018-02-11T09:10:16.061Z,993.24
2018-02-11T09:11:16.029Z,993.19
2018-02-11T09:12:16.032Z,993.17
2018-02-11T09:13:16.046Z,993.06
2018-02-11T09:14:16.007Z,993.02
2018-02-11T09:15:16.001Z,993.00
2018-02-11T09:16:15.982Z,993.04
2018-02-11T09:17:16.018Z,993.05
2018-02-11T09:18:16.826Z,993.02
2018-02-11T09:19:16.000Z,993.07
2018-02-11T09:20:15.948Z,993.03
2018-02-11T09:21:15.970Z,992.93
2018-02-11T09:22:15.913Z,992.97
2018-02-11T09:23:15.910Z,992.90
2018-02-11T09:24:15.915Z,992.92
2018-02-11T09:25:15.886Z,992.91
2018-02-11T09:26:15.862Z,992.97
2018-02-11T09:27:15.864Z,992.92
2018-02-11T09:28:15.856Z,992.85
2018-02-11T09:29:15.837Z,992.84
2018-02-11T09:30:15.832Z,992.90
2018-02-11T09:31:15.799Z,992.86
2018-02-11T09:32:15.829Z,992.91
2018-02-11T09:33:15.802Z,992.90
2018-02-11T09:34:15.784Z,992.86
2018-02-11T09:35:15.768Z,992.88
2018-02-11T09:36:15.759Z,992.86
2018-02-11T09:37:16.322Z,992.83
2018-02-11T09:38:15.756Z,992.83
2018-02-11T09:39:16.359Z,992.76
2018-02-11T09:40:15.730Z,992.80
2018-02-11T09:41:15.683Z,992.78
2018-02-11T09:42:15.674Z,992.68
2018-02-11T09:43:15.657Z,992.69
2018-02-11T09:44:15.651Z,992.67
2018-02-11T09:45:15.649Z,992.65
2018-02-11T09:46:15.624Z,992.68
2018-02-11T09:47:15.724Z,992.70
2018-02-11T09:48:15.649Z,992.67
2018-02-11T09:49:15.603Z,992.70
2018-02-11T09:50:15.632Z,992.68
2018-02-11T09:51:15.572Z,992.69
2018-02-11T09:52:15.561Z,992.63
2018-02-11T09:53:15.567Z,992.54
2018-02-11T09:54:15.664Z,992.66
2018-02-11T09:55:15.560Z,992.68
2018-02-11T09:56:15.533Z,992.64
2018-02-11T09:57:15.549Z,992.65
2018-02-11T09:58:15.493Z,992.62
2018-02-11T09:59:15.484Z,992.69
2018-02-11T10:00:15.475Z,992.61
2018-02-11T10:01:15.472Z,992.65
2018-02-11T10:02:15.447Z,992.62
2018-02-11T10:03:15.436Z,992.62
2018-02-11T10:04:15.436Z,992.67
2018-02-11T10:05:16.311Z,992.69
2018-02-11T10:06:15.428Z,992.58
2018-02-11T10:07:15.408Z,992.66
2018-02-11T10:08:15.435Z,992.58
2018-02-11T10:09:15.369Z,992.64
2018-02-11T10:10:15.398Z,992.63
2018-02-11T10:11:15.376Z,992.69
2018-02-11T10:12:15.343Z,992.75
2018-02-11T10:13:15.323Z,992.68
2018-02-11T10:14:15.336Z,992.59
2018-02-11T10:15:15.322Z,992.67
2018-02-11T10:16:15.323Z,992.64
2018-02-11T10:17:15.346Z,992.60
2018-02-11T10:18:15.304Z,992.63
2018-02-11T10:19:15.296Z,992.67
2018-02-11T10:20:15.319Z,992.69
2018-02-11T10:21:15.249Z,992.65
2018-02-11T10:22:15.273Z,992.71
2018-02-11T10:23:15.231Z,992.71
2018-02-11T10:24:15.219Z,992.66
2018-02-11T10:25:15.201Z,992.67
2018-02-11T10:26:15.186Z,992.66
2018-02-11T10:27:15.195Z,992.70
2018-02-11T10:28:15.218Z,992.69
2018-02-11T10:29:15.167Z,992.68
2018-02-11T10:30:15.841Z,992.71
2018-02-11T10:31:15.125Z,992.66
2018-02-11T10:32:15.845Z,992.62
2018-02-11T10:33:15.833Z,992.68
2018-02-11T10:34:15.098Z,992.70
2018-02-11T10:35:15.079Z,992.77
2018-02-11T10:36:15.821Z,992.79
2018-02-11T10:37:15.058Z,992.75
2018-02-11T10:38:15.069Z,992.75
2018-02-11T10:39:15.102Z,992.73
2018-02-11T10:40:15.024Z,992.76
2018-02-11T10:41:15.012Z,992.76
2018-02-11T10:42:15.014Z,992.79
2018-02-11T10:43:14.993Z,992.74
2018-02-11T10:44:14.996Z,992.80
2018-02-11T10:45:15.810Z,992.79
2018-02-11T10:46:14.970Z,992.74
2018-02-11T10:47:14.943Z,992.71
2018-02-11T10:48:15.856Z,992.71
2018-02-11T10:49:14.959Z,992.73
2018-02-11T10:50:14.922Z,992.69
2018-02-11T10:51:14.900Z,992.61
2018-02-11T10:52:14.900Z,992.62
2018-02-11T10:53:14.875Z,992.64
2018-02-11T10:54:14.895Z,992.66
2018-02-11T10:55:14.939Z,992.67
2018-02-11T10:56:14.848Z,992.70
2018-02-11T10:57:14.836Z,992.71
2018-02-11T10:58:14.828Z,992.65
2018-02-11T10:59:14.829Z,992.67
2018-02-11T11:00:14.827Z,992.70
2018-02-11T11:01:14.793Z,992.66
2018-02-11T11:02:14.783Z,992.66
2018-02-11T11:03:14.763Z,992.60
2018-02-11T11:04:14.778Z,992.69
2018-02-11T11:05:14.774Z,992.60
2018-02-11T11:06:14.734Z,992.63
2018-02-11T11:07:14.722Z,992.54
2018-02-11T11:08:14.710Z,992.58
2018-02-11T11:09:14.717Z,992.65
2018-02-11T11:10:14.740Z,992.64
2018-02-11T11:11:14.683Z,992.64
2018-02-11T11:12:15.361Z,992.70
2018-02-11T11:13:14.658Z,992.72
2018-02-11T11:14:14.688Z,992.73
2018-02-11T11:15:14.648Z,992.69
2018-02-11T11:16:14.631Z,992.72
2018-02-11T11:17:14.612Z,992.73
2018-02-11T11:18:15.349Z,992.69
2018-02-11T11:19:14.621Z,992.73
2018-02-11T11:20:14.579Z,992.73
2018-02-11T11:21:14.596Z,992.74
2018-02-11T11:22:15.311Z,992.71
2018-02-11T11:23:14.535Z,992.73
2018-02-11T11:24:14.530Z,992.70
2018-02-11T11:25:14.559Z,992.80
2018-02-11T11:26:14.570Z,992.74
2018-02-11T11:27:14.514Z,992.70
2018-02-11T11:28:14.510Z,992.70
2018-02-11T11:29:14.506Z,992.64
2018-02-11T11:30:14.462Z,992.64
2018-02-11T11:31:14.475Z,992.63
2018-02-11T11:32:14.446Z,992.64
2018-02-11T11:33:14.436Z,992.63
2018-02-11T11:34:14.422Z,992.69
2018-02-11T11:35:14.408Z,992.66
2018-02-11T11:36:14.414Z,992.66
2018-02-11T11:37:14.389Z,992.67
2018-02-11T11:38:14.510Z,992.65
2018-02-11T11:39:14.362Z,992.53
2018-02-11T11:40:14.349Z,992.59
2018-02-11T11:41:14.398Z,992.58
2018-02-11T11:42:14.328Z,992.53
2018-02-11T11:43:14.337Z,992.59
2018-02-11T11:44:14.303Z,992.60
2018-02-11T11:45:14.291Z,992.59
2018-02-11T11:46:14.306Z,992.56
2018-02-11T11:47:14.261Z,992.60
2018-02-11T11:48:14.288Z,992.57
2018-02-11T11:49:14.244Z,992.53
2018-02-11T11:50:14.228Z,992.59
2018-02-11T11:51:14.237Z,992.56
2018-02-11T11:52:14.220Z,992.49
2018-02-11T11:53:14.197Z,992.52
2018-02-11T11:54:14.187Z,992.56
2018-02-11T11:55:14.184Z,992.52
2018-02-11T11:56:14.184Z,992.54
2018-02-11T11:57:14.311Z,992.54
2018-02-11T11:58:14.143Z,992.56
2018-02-11T11:59:14.130Z,992.56
2018-02-11T12:00:14.121Z,992.58
2018-02-11T12:01:14.112Z,992.55
2018-02-11T12:02:14.169Z,992.54
2018-02-11T12:03:14.088Z,992.47
2018-02-11T12:04:14.076Z,992.47
2018-02-11T12:05:14.069Z,992.55
2018-02-11T12:06:14.049Z,992.56
2018-02-11T12:07:14.035Z,992.49
2018-02-11T12:08:14.049Z,992.54
2018-02-11T12:09:14.021Z,992.58
2018-02-11T12:10:14.015Z,992.63
2018-02-11T12:11:13.996Z,992.59
2018-02-11T12:12:13.988Z,992.53
2018-02-11T12:13:13.987Z,992.47
2018-02-11T12:14:13.954Z,992.47
2018-02-11T12:15:13.949Z,992.49
2018-02-11T12:16:13.935Z,992.49
2018-02-11T12:17:13.957Z,992.44
2018-02-11T12:18:13.976Z,992.52
2018-02-11T12:19:13.895Z,992.54
2018-02-11T12:20:14.870Z,992.53
2018-02-11T12:21:13.877Z,992.50
2018-02-11T12:22:13.871Z,992.49